createdAt,value
2017-10-19T00:03:56.283Z,0
2017-10-19T00:13:56.307Z,0
2017-10-19T00:23:56.268Z,0
2017-10-19T00:33:56.345Z,0
2017-10-19T00:43:56.361Z,0
2017-10-19T00:53:56.536Z,0
2017-10-19T01:03:56.320Z,0
2017-10-19T01:13:56.382Z,0
2017-10-19T01:23:56.338Z,0
2017-10-19T01:33:56.412Z,0
2017-10-19T01:43:56.692Z,0
2017-10-19T01:53:56.753Z,0
2017-10-19T02:03:56.728Z,0
2017-10-19T02:13:56.682Z,0
2017-10-19T02:23:56.768Z,0
2017-10-19T02:33:56.735Z,0
2017-10-19T02:43:56.772Z,0
2017-10-19T02:53:56.744Z,0
2017-10-19T03:03:57.033Z,0
2017-10-19T03:13:56.746Z,0
2017-10-19T03:23:56.829Z,0
2017-10-19T03:33:56.852Z,0
2017-10-19T03:43:56.852Z,0
2017-10-19T03:53:56.838Z,0
2017-10-19T04:03:56.846Z,0
2017-10-19T04:13:56.813Z,0
2017-10-19T04:23:56.897Z,0
2017-10-19T04:33:56.854Z,0
2017-10-19T04:43:56.879Z,0
2017-10-19T04:53:56.871Z,0
2017-10-19T05:03:56.832Z,0
2017-10-19T05:13:57.107Z,0
2017-10-19T05:23:56.946Z,0
2017-10-19T05:33:59.190Z,0
2017-10-19T05:43:56.855Z,0
2017-10-19T05:53:56.937Z,0
2017-10-19T06:03:56.916Z,5
2017-10-19T06:13:57.043Z,10
2017-10-19T06:23:56.876Z,15
2017-10-19T06:33:56.959Z,25
2017-10-19T06:43:56.963Z,30
2017-10-19T06:53:56.945Z,40
2017-10-19T07:03:56.951Z,50
2017-10-19T07:13:56.994Z,55
2017-10-19T07:23:57.021Z,60
2017-10-19T07:33:57.011Z,70
2017-10-19T07:43:57.042Z,75
2017-10-19T07:53:56.957Z,75
2017-10-19T08:03:56.985Z,75
2017-10-19T08:13:56.973Z,85
2017-10-19T08:23:56.997Z,80
2017-10-19T08:33:57.017Z,90
2017-10-19T08:43:57.036Z,90
2017-10-19T08:53:57.047Z,95
2017-10-19T09:03:57.040Z,100
2017-10-19T09:13:57.019Z,100
2017-10-19T09:23:57.076Z,100
2017-10-19T09:33:57.089Z,100
2017-10-19T09:43:57.072Z,100
2017-10-19T09:53:57.143Z,100
2017-10-19T10:03:57.083Z,100
2017-10-19T10:13:57.049Z,105
2017-10-19T10:23:57.122Z,105
2017-10-19T10:33:57.165Z,105
2017-10-19T10:43:57.117Z,105
2017-10-19T10:53:57.128Z,110
2017-10-19T11:03:57.142Z,110
2017-10-19T11:13:57.163Z,110
2017-10-19T11:23:57.223Z,115
2017-10-19T11:33:57.230Z,140
2017-10-19T11:43:57.197Z,145
2017-10-19T11:53:57.191Z,130
2017-10-19T12:03:57.217Z,135
2017-10-19T12:13:57.208Z,145
2017-10-19T12:23:57.208Z,145
2017-10-19T12:33:57.191Z,140
2017-10-19T12:43:57.231Z,130
2017-10-19T12:53:57.140Z,130
2017-10-19T13:03:57.258Z,135
2017-10-19T13:13:57.195Z,120
2017-10-19T13:23:57.194Z,105
2017-10-19T13:33:57.145Z,120
2017-10-19T13:43:57.205Z,120
2017-10-19T13:53:57.198Z,120
2017-10-19T14:03:57.194Z,110
2017-10-19T14:13:57.192Z,100
2017-10-19T14:23:57.234Z,90
2017-10-19T14:33:57.224Z,80
2017-10-19T14:43:57.179Z,75
2017-10-19T14:53:57.204Z,70
2017-10-19T15:03:57.222Z,60
2017-10-19T15:13:57.228Z,55
2017-10-19T15:23:57.229Z,50
2017-10-19T15:33:57.272Z,40
2017-10-19T15:43:57.199Z,30
2017-10-19T15:53:57.197Z,20
2017-10-19T16:03:57.268Z,15
2017-10-19T16:13:57.275Z,10
2017-10-19T16:23:57.321Z,5
2017-10-19T16:33:57.256Z,0
2017-10-19T16:43:57.310Z,0
2017-10-19T16:53:57.276Z,0
2017-10-19T17:03:57.205Z,0
2017-10-19T17:13:57.541Z,0
2017-10-19T17:23:59.122Z,0
2017-10-19T17:33:58.181Z,0
2017-10-19T17:43:57.982Z,0
2017-10-19T17:53:59.201Z,0
2017-10-19T18:03:58.440Z,0
2017-10-19T18:13:57.296Z,0
2017-10-19T18:23:59.589Z,0
2017-10-19T18:33:59.372Z,0
2017-10-19T18:44:00.283Z,0
2017-10-19T18:54:01.314Z,0
2017-10-19T19:04:07.499Z,0
2017-10-19T19:14:01.247Z,0
2017-10-19T19:24:01.399Z,0
2017-10-19T19:34:01.362Z,0
2017-10-19T19:44:01.926Z,0
2017-10-19T19:54:03.720Z,0
2017-10-19T20:04:01.362Z,0
2017-10-19T20:14:03.621Z,0
2017-10-19T20:24:01.445Z,0
2017-10-19T20:33:58.979Z,0
2017-10-19T20:43:57.683Z,0
2017-10-19T20:53:58.977Z,0
2017-10-19T21:03:57.549Z,0
2017-10-19T21:13:58.953Z,0
2017-10-19T21:23:57.589Z,0
2017-10-19T21:33:57.271Z,0
2017-10-19T21:43:57.308Z,0
2017-10-19T21:53:57.352Z,0
2017-10-19T22:04:27.840Z,0
2017-10-19T22:14:08.901Z,0
2017-10-19T22:23:57.264Z,0
2017-10-19T22:33:57.237Z,0
2017-10-19T22:43:57.266Z,0
2017-10-19T22:53:57.279Z,0
2017-10-19T23:03:57.349Z,0
2017-10-19T23:13:57.274Z,0
2017-10-19T23:23:57.239Z,0
2017-10-19T23:33:57.299Z,0
2017-10-19T23:43:57.261Z,0
2017-10-19T23:53:57.366Z,0
